Arviat - eastern half: Past 24 Hour Conditions

 

Kuujjuaq Airport

03:00 PM EST 22 January 2018
Disclaimer

This table is a summary of hourly weather conditions for the past 24 hours.
Please note that these observations might not always be representative of weather conditions over their associated marine area.

Date / Time
(EST)
Wind(knots) Conditions Visibility(km) Pressure(kPa) Air tempC) Relative humidity(%) Dew pointC) Wind Chill
22 January 2018
15:00 WSW 9 Drifting Snow 24 102.2 -25 65 -30 -36
14:00 W 8 gust 15 Drifting Snow 24 102.1 -24 64 -29 -35
13:00 W 11 gust 22 Drifting Snow 24 102.0 -24 64 -29 -36
12:00 W 11 gust 17 Drifting Snow 24 102.0 -24 63 -29 -35
11:00 W 15 gust 25 Drifting Snow 24 101.9 -24 64 -29 -37
10:00 W 8 gust 19 Drifting Snow 24 101.9 -24 65 -29 -34
9:00 W 13 gust 20 Drifting Snow 24 101.8 -24 67 -29 -37
8:00 W 9 gust 16 Partly Cloudy 24 101.8 -25 70 -29 -35
7:00 W 10 gust 17 Partly Cloudy 24 101.7 -25 70 -29 -36
6:00 WSW 9 gust 15 Partly Cloudy 24 101.7 -25 70 -29 -36
5:00 W 10 gust 22 Partly Cloudy 24 101.6 -25 69 -29 -36
4:00 W 13 gust 19 Partly Cloudy 24 101.5 -24 70 -28 -37
3:00 W 11 Mainly Clear 24 101.5 -25 72 -28 -37
2:00 WSW 10 Clear 24 101.5 -24 70 -28 -36
1:00 W 6 gust 15 Clear 24 101.4 -25 72 -28 -34
0:00 SW 3 Clear 24 101.3 -26 74 -29 -32
21 January 2018
23:00 WSW 9 Clear 24 101.3 -25 74 -29 -36
22:00 W 6 Clear 24 101.3 -25 73 -29 -33
21:00 WSW 7 Clear 24 101.2 -27 77 -30 -37
20:00 SSW 6 Clear 24 101.2 -26 76 -29 -35
19:00 WSW 2 Clear 24 101.2 -25 75 -28 -28
18:00 SSW 3 Mainly Clear 24 101.1 -25 74 -28 -30
17:00 SW 2 Mainly Clear 24 101.1 -24 74 -27 -26
16:00 WSW 5 Mainly Clear 24 101.0 -23 73 -26 -30
15:00 W 6 Partly Cloudy 24 101.0 -21 69 -26 -30

Zoom-in to make a selection

Map of Hudson - Hudson Bay marine weather areas Arviat Airport Baker Lake Airport Chesterfield Inlet Airport Coral Harbour Airport Rankin Inlet Airport Sanikiluaq Airport Whale Cove Airport Cape Dorset Airport Iqaluit Airport Resolution Island Wager Bay Churchill Airport Fort Severn Airport Peawanuck Airport Moosonee Airport La Grande Rivière Airport Waskaganish Airport Wemindji Airport Akulivik Airport Inukjuak Airport Ivujivik Airport Kuujjuarapik Airport Puvirnituq Airport Umiujaq Airport Kangiqsujuaq Airport Kangirsuk Airport Kuujjuaq Airport Quaqtaq Airport Tasiujaq Airport Cape Kakkiviak Kimmirut Airport Eastmain Airport Aupaluk Airport Salluit Airport Kangiqsualujjuaq Airport
Legend:
buoy Buoy
land station Land Station

Hudson - Hudson Bay Area

Another Region

What we are doing

Date modified: